sensor_id;sensor_type;location;lat;lon;timestamp;pressure;altitude;pressure_sealevel;temperature;humidity
60465;BME280;46314;52.392;9.758;2022-10-13T00:00:13;101305.31;;;11.26;70.58
60465;BME280;46314;52.392;9.758;2022-10-13T00:02:40;101306.56;;;11.04;70.79
60465;BME280;46314;52.392;9.758;2022-10-13T00:05:07;101302.72;;;11.00;71.59
60465;BME280;46314;52.392;9.758;2022-10-13T00:07:33;101299.38;;;11.03;71.17
60465;BME280;46314;52.392;9.758;2022-10-13T00:10:02;101292.88;;;10.78;71.79
60465;BME280;46314;52.392;9.758;2022-10-13T00:12:28;101292.69;;;11.04;71.30
60465;BME280;46314;52.392;9.758;2022-10-13T00:14:56;101290.56;;;10.96;71.46
60465;BME280;46314;52.392;9.758;2022-10-13T00:17:23;101290.06;;;10.89;71.64
60465;BME280;46314;52.392;9.758;2022-10-13T00:19:49;101287.19;;;10.99;71.72
60465;BME280;46314;52.392;9.758;2022-10-13T00:22:16;101280.19;;;11.07;71.03
60465;BME280;46314;52.392;9.758;2022-10-13T00:24:43;101284.88;;;11.11;71.33
60465;BME280;46314;52.392;9.758;2022-10-13T00:27:11;101281.38;;;10.95;71.43
60465;BME280;46314;52.392;9.758;2022-10-13T00:29:37;101283.78;;;11.07;70.89
60465;BME280;46314;52.392;9.758;2022-10-13T00:32:04;101288.13;;;11.18;70.73
60465;BME280;46314;52.392;9.758;2022-10-13T00:34:30;101293.41;;;11.20;70.83
60465;BME280;46314;52.392;9.758;2022-10-13T00:36:57;101287.69;;;11.41;70.62
60465;BME280;46314;52.392;9.758;2022-10-13T00:39:23;101291.25;;;11.46;70.13
60465;BME280;46314;52.392;9.758;2022-10-13T00:41:50;101284.16;;;11.30;70.74
60465;BME280;46314;52.392;9.758;2022-10-13T00:44:58;101282.66;;;11.43;70.43
60465;BME280;46314;52.392;9.758;2022-10-13T00:47:25;101279.94;;;11.37;70.62
60465;BME280;46314;52.392;9.758;2022-10-13T00:49:54;101282.75;;;11.32;70.64
60465;BME280;46314;52.392;9.758;2022-10-13T00:52:22;101283.81;;;11.42;70.76
60465;BME280;46314;52.392;9.758;2022-10-13T00:54:50;101277.41;;;11.41;70.84
60465;BME280;46314;52.392;9.758;2022-10-13T00:57:18;101287.13;;;11.68;70.50
60465;BME280;46314;52.392;9.758;2022-10-13T00:59:45;101284.06;;;11.69;70.43
60465;BME280;46314;52.392;9.758;2022-10-13T01:02:14;101277.09;;;11.72;70.35
60465;BME280;46314;52.392;9.758;2022-10-13T01:04:43;101281.94;;;11.61;70.67
60465;BME280;46314;52.392;9.758;2022-10-13T01:07:12;101278.97;;;11.52;71.23
60465;BME280;46314;52.392;9.758;2022-10-13T01:09:39;101273.38;;;11.58;70.97
60465;BME280;46314;52.392;9.758;2022-10-13T01:12:13;101274.84;;;11.74;70.58
60465;BME280;46314;52.392;9.758;2022-10-13T01:14:48;101281.66;;;11.63;70.86
60465;BME280;46314;52.392;9.758;2022-10-13T01:17:26;101279.31;;;11.75;70.33
60465;BME280;46314;52.392;9.758;2022-10-13T01:20:21;101283.09;;;11.84;70.16
60465;BME280;46314;52.392;9.758;2022-10-13T01:23:09;101277.59;;;11.79;70.67
60465;BME280;46314;52.392;9.758;2022-10-13T01:26:04;101278.22;;;11.71;70.65
60465;BME280;46314;52.392;9.758;2022-10-13T01:28:58;101266.56;;;11.69;70.93
60465;BME280;46314;52.392;9.758;2022-10-13T01:31:33;101270.53;;;11.63;71.11
60465;BME280;46314;52.392;9.758;2022-10-13T01:34:09;101267.50;;;11.30;72.58
60465;BME280;46314;52.392;9.758;2022-10-13T01:36:46;101261.81;;;11.45;72.04
60465;BME280;46314;52.392;9.758;2022-10-13T01:39:23;101267.06;;;11.17;73.37
60465;BME280;46314;52.392;9.758;2022-10-13T01:41:55;101260.88;;;11.26;73.41
60465;BME280;46314;52.392;9.758;2022-10-13T01:44:26;101259.53;;;11.52;71.48
60465;BME280;46314;52.392;9.758;2022-10-13T01:46:56;101254.50;;;11.54;71.22
60465;BME280;46314;52.392;9.758;2022-10-13T01:49:27;101252.44;;;11.36;72.21
60465;BME280;46314;52.392;9.758;2022-10-13T01:51:58;101246.75;;;11.51;71.25
60465;BME280;46314;52.392;9.758;2022-10-13T01:54:27;101242.38;;;11.45;71.75
60465;BME280;46314;52.392;9.758;2022-10-13T01:56:54;101252.97;;;11.67;70.91
60465;BME280;46314;52.392;9.758;2022-10-13T01:59:21;101247.38;;;11.43;72.00
60465;BME280;46314;52.392;9.758;2022-10-13T02:01:58;101248.13;;;11.54;71.48
60465;BME280;46314;52.392;9.758;2022-10-13T02:04:36;101237.44;;;11.66;71.09
60465;BME280;46314;52.392;9.758;2022-10-13T02:07:10;101235.66;;;11.22;72.44
60465;BME280;46314;52.392;9.758;2022-10-13T02:09:45;101235.00;;;11.30;72.53
60465;BME280;46314;52.392;9.758;2022-10-13T02:12:19;101238.47;;;11.46;72.14
60465;BME280;46314;52.392;9.758;2022-10-13T02:14:49;101232.81;;;11.56;72.13
60465;BME280;46314;52.392;9.758;2022-10-13T02:17:19;101231.78;;;11.47;71.80
60465;BME280;46314;52.392;9.758;2022-10-13T02:19:46;101235.69;;;11.46;72.13
60465;BME280;46314;52.392;9.758;2022-10-13T02:22:14;101225.22;;;11.62;71.76
60465;BME280;46314;52.392;9.758;2022-10-13T02:24:42;101224.66;;;11.65;71.40
60465;BME280;46314;52.392;9.758;2022-10-13T02:27:08;101218.63;;;11.58;71.59
60465;BME280;46314;52.392;9.758;2022-10-13T02:29:47;101225.03;;;11.53;71.71
60465;BME280;46314;52.392;9.758;2022-10-13T02:32:14;101224.78;;;11.79;71.44
60465;BME280;46314;52.392;9.758;2022-10-13T02:34:42;101218.50;;;11.68;71.62
60465;BME280;46314;52.392;9.758;2022-10-13T02:37:08;101220.19;;;11.40;72.53
60465;BME280;46314;52.392;9.758;2022-10-13T02:39:35;101222.56;;;11.52;72.39
60465;BME280;46314;52.392;9.758;2022-10-13T02:42:01;101221.00;;;11.70;71.56
60465;BME280;46314;52.392;9.758;2022-10-13T02:44:28;101217.97;;;11.66;71.68
60465;BME280;46314;52.392;9.758;2022-10-13T02:46:54;101222.09;;;11.69;71.37
60465;BME280;46314;52.392;9.758;2022-10-13T02:49:20;101221.59;;;11.67;71.79
60465;BME280;46314;52.392;9.758;2022-10-13T02:51:48;101214.47;;;10.97;73.98
60465;BME280;46314;52.392;9.758;2022-10-13T02:54:15;101221.66;;;11.32;73.29
60465;BME280;46314;52.392;9.758;2022-10-13T02:56:41;101217.28;;;11.26;73.06
60465;BME280;46314;52.392;9.758;2022-10-13T02:59:08;101216.47;;;11.26;73.15
60465;BME280;46314;52.392;9.758;2022-10-13T03:01:34;101209.38;;;11.39;72.73
60465;BME280;46314;52.392;9.758;2022-10-13T03:04:01;101206.59;;;11.39;72.54
60465;BME280;46314;52.392;9.758;2022-10-13T03:06:27;101211.44;;;11.28;73.37
60465;BME280;46314;52.392;9.758;2022-10-13T03:08:55;101207.28;;;11.25;73.21
60465;BME280;46314;52.392;9.758;2022-10-13T03:11:22;101202.44;;;11.36;72.69
60465;BME280;46314;52.392;9.758;2022-10-13T03:13:48;101204.69;;;11.34;72.93
60465;BME280;46314;52.392;9.758;2022-10-13T03:16:14;101200.41;;;11.17;73.26
60465;BME280;46314;52.392;9.758;2022-10-13T03:18:41;101193.28;;;11.06;73.87
60465;BME280;46314;52.392;9.758;2022-10-13T03:21:09;101197.69;;;11.12;73.96
60465;BME280;46314;52.392;9.758;2022-10-13T03:23:35;101202.16;;;11.37;72.86
60465;BME280;46314;52.392;9.758;2022-10-13T03:26:04;101198.03;;;11.35;72.74
60465;BME280;46314;52.392;9.758;2022-10-13T03:28:31;101194.66;;;11.09;73.09
60465;BME280;46314;52.392;9.758;2022-10-13T03:31:01;101197.50;;;11.33;73.10
60465;BME280;46314;52.392;9.758;2022-10-13T03:33:28;101199.09;;;11.39;73.00
60465;BME280;46314;52.392;9.758;2022-10-13T03:35:57;101199.56;;;11.46;72.65
60465;BME280;46314;52.392;9.758;2022-10-13T03:38:23;101197.91;;;11.69;72.45
60465;BME280;46314;52.392;9.758;2022-10-13T03:40:50;101203.84;;;11.63;72.67
60465;BME280;46314;52.392;9.758;2022-10-13T03:43:18;101205.84;;;11.81;72.57
60465;BME280;46314;52.392;9.758;2022-10-13T03:45:53;101198.88;;;11.84;72.08
60465;BME280;46314;52.392;9.758;2022-10-13T03:48:20;101197.09;;;11.69;72.70
60465;BME280;46314;52.392;9.758;2022-10-13T03:50:46;101191.59;;;11.64;73.36
60465;BME280;46314;52.392;9.758;2022-10-13T03:53:12;101200.47;;;11.66;73.24
60465;BME280;46314;52.392;9.758;2022-10-13T03:55:39;101204.84;;;11.72;73.07
60465;BME280;46314;52.392;9.758;2022-10-13T03:58:05;101205.38;;;11.74;73.06
60465;BME280;46314;52.392;9.758;2022-10-13T04:00:36;101205.38;;;11.74;73.36
60465;BME280;46314;52.392;9.758;2022-10-13T04:03:02;101203.00;;;11.86;72.86
60465;BME280;46314;52.392;9.758;2022-10-13T04:05:29;101200.75;;;11.88;73.27
60465;BME280;46314;52.392;9.758;2022-10-13T04:07:55;101201.53;;;11.94;72.60
60465;BME280;46314;52.392;9.758;2022-10-13T04:10:22;101197.16;;;12.12;71.87
60465;BME280;46314;52.392;9.758;2022-10-13T04:12:48;101196.41;;;11.82;72.83
60465;BME280;46314;52.392;9.758;2022-10-13T04:15:15;101206.03;;;11.90;73.03
60465;BME280;46314;52.392;9.758;2022-10-13T04:17:43;101198.66;;;11.56;73.84
60465;BME280;46314;52.392;9.758;2022-10-13T04:20:09;101202.88;;;11.48;74.17
60465;BME280;46314;52.392;9.758;2022-10-13T04:22:36;101198.22;;;11.92;73.15
60465;BME280;46314;52.392;9.758;2022-10-13T04:25:03;101198.22;;;11.92;72.87
60465;BME280;46314;52.392;9.758;2022-10-13T04:27:30;101193.31;;;12.08;72.60
60465;BME280;46314;52.392;9.758;2022-10-13T04:29:57;101190.78;;;11.87;72.71
60465;BME280;46314;52.392;9.758;2022-10-13T04:32:24;101198.03;;;11.83;73.24
60465;BME280;46314;52.392;9.758;2022-10-13T04:34:51;101187.59;;;11.75;73.91
60465;BME280;46314;52.392;9.758;2022-10-13T04:37:18;101185.91;;;11.50;74.79
60465;BME280;46314;52.392;9.758;2022-10-13T04:39:44;101183.72;;;11.71;74.03
60465;BME280;46314;52.392;9.758;2022-10-13T04:42:11;101180.19;;;11.89;73.35
60465;BME280;46314;52.392;9.758;2022-10-13T04:44:37;101171.97;;;11.79;73.42
60465;BME280;46314;52.392;9.758;2022-10-13T04:47:04;101171.84;;;11.65;74.06
60465;BME280;46314;52.392;9.758;2022-10-13T04:49:30;101179.47;;;11.54;75.00
60465;BME280;46314;52.392;9.758;2022-10-13T04:51:58;101172.19;;;11.59;74.56
60465;BME280;46314;52.392;9.758;2022-10-13T04:54:24;101182.50;;;11.82;73.59
60465;BME280;46314;52.392;9.758;2022-10-13T04:56:51;101172.03;;;11.74;73.76
60465;BME280;46314;52.392;9.758;2022-10-13T04:59:17;101175.88;;;11.54;74.78
60465;BME280;46314;52.392;9.758;2022-10-13T05:01:44;101175.09;;;11.48;75.14
60465;BME280;46314;52.392;9.758;2022-10-13T05:04:10;101171.03;;;11.65;74.26
60465;BME280;46314;52.392;9.758;2022-10-13T05:06:39;101159.88;;;11.89;73.20
60465;BME280;46314;52.392;9.758;2022-10-13T05:09:27;101158.50;;;11.67;74.88
60465;BME280;46314;52.392;9.758;2022-10-13T05:11:53;101167.09;;;11.17;76.50
60465;BME280;46314;52.392;9.758;2022-10-13T05:14:19;101160.84;;;11.79;74.45
60465;BME280;46314;52.392;9.758;2022-10-13T05:16:46;101159.72;;;11.80;74.32
60465;BME280;46314;52.392;9.758;2022-10-13T05:19:13;101164.41;;;11.36;75.99
60465;BME280;46314;52.392;9.758;2022-10-13T05:21:40;101158.16;;;11.26;76.06
60465;BME280;46314;52.392;9.758;2022-10-13T05:24:07;101164.59;;;11.45;75.76
60465;BME280;46314;52.392;9.758;2022-10-13T05:26:35;101154.53;;;11.73;74.49
60465;BME280;46314;52.392;9.758;2022-10-13T05:29:01;101150.97;;;11.68;75.29
60465;BME280;46314;52.392;9.758;2022-10-13T05:31:30;101158.16;;;11.26;76.45
60465;BME280;46314;52.392;9.758;2022-10-13T05:33:56;101154.75;;;11.29;77.22
60465;BME280;46314;52.392;9.758;2022-10-13T05:36:24;101150.09;;;11.48;76.44
60465;BME280;46314;52.392;9.758;2022-10-13T05:38:52;101152.13;;;12.10;73.82
60465;BME280;46314;52.392;9.758;2022-10-13T05:41:20;101158.16;;;11.26;76.91
60465;BME280;46314;52.392;9.758;2022-10-13T05:43:50;101162.63;;;11.70;75.56
60465;BME280;46314;52.392;9.758;2022-10-13T05:46:16;101153.72;;;11.49;75.62
60465;BME280;46314;52.392;9.758;2022-10-13T05:48:43;101155.91;;;11.28;77.12
60465;BME280;46314;52.392;9.758;2022-10-13T05:51:11;101141.00;;;11.67;75.98
60465;BME280;46314;52.392;9.758;2022-10-13T05:53:42;101141.91;;;11.81;75.13
60465;BME280;46314;52.392;9.758;2022-10-13T05:56:18;101137.59;;;11.94;74.69
60465;BME280;46314;52.392;9.758;2022-10-13T05:58:50;101146.06;;;11.84;74.92
60465;BME280;46314;52.392;9.758;2022-10-13T06:01:21;101132.81;;;12.00;74.66
60465;BME280;46314;52.392;9.758;2022-10-13T06:03:49;101133.88;;;12.04;74.44
60465;BME280;46314;52.392;9.758;2022-10-13T06:06:17;101133.66;;;11.76;75.53
60465;BME280;46314;52.392;9.758;2022-10-13T06:08:43;101135.97;;;11.69;75.96
60465;BME280;46314;52.392;9.758;2022-10-13T06:11:10;101130.19;;;12.08;74.48
60465;BME280;46314;52.392;9.758;2022-10-13T06:13:36;101135.13;;;12.11;74.10
60465;BME280;46314;52.392;9.758;2022-10-13T06:16:05;101138.22;;;11.91;74.31
60465;BME280;46314;52.392;9.758;2022-10-13T06:18:31;101136.72;;;11.74;76.38
60465;BME280;46314;52.392;9.758;2022-10-13T06:20:58;101132.28;;;11.98;74.85
60465;BME280;46314;52.392;9.758;2022-10-13T06:23:24;101126.47;;;11.51;77.33
60465;BME280;46314;52.392;9.758;2022-10-13T06:25:52;101128.44;;;11.93;76.05
60465;BME280;46314;52.392;9.758;2022-10-13T06:28:19;101122.75;;;12.23;73.90
60465;BME280;46314;52.392;9.758;2022-10-13T06:30:47;101108.78;;;11.85;75.98
60465;BME280;46314;52.392;9.758;2022-10-13T06:33:15;101108.72;;;12.47;73.73
60465;BME280;46314;52.392;9.758;2022-10-13T06:35:41;101115.19;;;12.61;72.84
60465;BME280;46314;52.392;9.758;2022-10-13T06:38:07;101113.75;;;12.12;74.72
60465;BME280;46314;52.392;9.758;2022-10-13T06:40:34;101112.22;;;12.01;75.61
60465;BME280;46314;52.392;9.758;2022-10-13T06:43:00;101122.13;;;12.45;74.20
60465;BME280;46314;52.392;9.758;2022-10-13T06:45:27;101126.81;;;11.68;77.42
60465;BME280;46314;52.392;9.758;2022-10-13T06:47:54;101125.81;;;12.02;76.09
60465;BME280;46314;52.392;9.758;2022-10-13T06:50:22;101129.50;;;11.98;76.22
60465;BME280;46314;52.392;9.758;2022-10-13T06:52:48;101128.53;;;12.45;74.81
60465;BME280;46314;52.392;9.758;2022-10-13T06:55:15;101118.53;;;12.06;75.75
60465;BME280;46314;52.392;9.758;2022-10-13T06:57:41;101125.06;;;12.35;74.98
60465;BME280;46314;52.392;9.758;2022-10-13T07:00:09;101117.72;;;12.06;75.92
60465;BME280;46314;52.392;9.758;2022-10-13T07:02:36;101122.03;;;12.50;74.04
60465;BME280;46314;52.392;9.758;2022-10-13T07:05:02;101115.16;;;12.94;72.79
60465;BME280;46314;52.392;9.758;2022-10-13T07:07:30;101120.91;;;12.51;74.88
60465;BME280;46314;52.392;9.758;2022-10-13T07:09:57;101113.84;;;12.40;74.73
60465;BME280;46314;52.392;9.758;2022-10-13T07:12:23;101120.09;;;12.50;74.39
60465;BME280;46314;52.392;9.758;2022-10-13T07:14:49;101129.66;;;12.44;75.08
60465;BME280;46314;52.392;9.758;2022-10-13T07:17:16;101131.84;;;12.94;73.42
60465;BME280;46314;52.392;9.758;2022-10-13T07:19:43;101127.19;;;12.76;73.29
60465;BME280;46314;52.392;9.758;2022-10-13T07:22:09;101125.88;;;12.54;73.92
60465;BME280;46314;52.392;9.758;2022-10-13T07:24:37;101118.22;;;12.46;75.22
60465;BME280;46314;52.392;9.758;2022-10-13T07:27:03;101115.91;;;13.00;73.40
60465;BME280;46314;52.392;9.758;2022-10-13T07:29:33;101116.22;;;12.98;72.83
60465;BME280;46314;52.392;9.758;2022-10-13T07:31:59;101106.75;;;12.66;73.56
60465;BME280;46314;52.392;9.758;2022-10-13T07:34:26;101108.03;;;12.88;72.96
60465;BME280;46314;52.392;9.758;2022-10-13T07:36:52;101109.69;;;13.03;72.40
60465;BME280;46314;52.392;9.758;2022-10-13T07:39:19;101109.91;;;13.06;72.81
60465;BME280;46314;52.392;9.758;2022-10-13T07:41:46;101120.66;;;13.13;72.37
60465;BME280;46314;52.392;9.758;2022-10-13T07:44:16;101117.25;;;13.16;72.43
60465;BME280;46314;52.392;9.758;2022-10-13T07:46:43;101117.72;;;13.37;71.10
60465;BME280;46314;52.392;9.758;2022-10-13T07:49:09;101112.25;;;13.46;70.89
60465;BME280;46314;52.392;9.758;2022-10-13T07:51:41;101114.44;;;13.35;72.29
60465;BME280;46314;52.392;9.758;2022-10-13T07:54:07;101111.44;;;13.46;71.60
60465;BME280;46314;52.392;9.758;2022-10-13T07:56:34;101113.06;;;13.74;71.10
60465;BME280;46314;52.392;9.758;2022-10-13T07:59:02;101095.72;;;13.63;71.23
60465;BME280;46314;52.392;9.758;2022-10-13T08:01:28;101100.81;;;13.48;70.19
60465;BME280;46314;52.392;9.758;2022-10-13T08:03:55;101099.41;;;13.87;70.63
60465;BME280;46314;52.392;9.758;2022-10-13T08:06:22;101091.72;;;14.06;69.11
60465;BME280;46314;52.392;9.758;2022-10-13T08:08:48;101098.53;;;14.00;69.85
60465;BME280;46314;52.392;9.758;2022-10-13T08:11:16;101089.88;;;13.88;70.36
60465;BME280;46314;52.392;9.758;2022-10-13T08:13:45;101086.06;;;13.97;69.47
60465;BME280;46314;52.392;9.758;2022-10-13T08:16:13;101090.34;;;13.67;71.32
60465;BME280;46314;52.392;9.758;2022-10-13T08:18:40;101083.66;;;14.05;69.06
60465;BME280;46314;52.392;9.758;2022-10-13T08:21:08;101094.78;;;13.68;70.43
60465;BME280;46314;52.392;9.758;2022-10-13T08:23:57;101083.72;;;14.13;70.43
60465;BME280;46314;52.392;9.758;2022-10-13T08:26:24;101077.34;;;14.13;70.41
60465;BME280;46314;52.392;9.758;2022-10-13T08:28:51;101080.38;;;14.62;68.30
60465;BME280;46314;52.392;9.758;2022-10-13T08:31:39;101084.00;;;14.48;69.20
60465;BME280;46314;52.392;9.758;2022-10-13T08:34:06;101084.69;;;15.39;65.12
60465;BME280;46314;52.392;9.758;2022-10-13T08:36:33;101079.50;;;14.61;67.52
60465;BME280;46314;52.392;9.758;2022-10-13T08:38:59;101078.44;;;14.71;68.66
60465;BME280;46314;52.392;9.758;2022-10-13T08:41:27;101076.06;;;14.42;68.41
60465;BME280;46314;52.392;9.758;2022-10-13T08:43:57;101078.03;;;14.41;68.55
60465;BME280;46314;52.392;9.758;2022-10-13T08:46:57;101077.66;;;14.56;67.93
60465;BME280;46314;52.392;9.758;2022-10-13T08:49:27;101078.69;;;14.83;67.93
60465;BME280;46314;52.392;9.758;2022-10-13T08:51:55;101079.44;;;15.46;65.46
60465;BME280;46314;52.392;9.758;2022-10-13T08:54:24;101077.34;;;15.61;64.84
60465;BME280;46314;52.392;9.758;2022-10-13T08:56:51;101089.44;;;14.67;67.24
60465;BME280;46314;52.392;9.758;2022-10-13T08:59:18;101091.75;;;14.51;69.11
60465;BME280;46314;52.392;9.758;2022-10-13T09:01:45;101092.47;;;14.20;70.40
60465;BME280;46314;52.392;9.758;2022-10-13T09:04:26;101098.41;;;14.87;68.24
60465;BME280;46314;52.392;9.758;2022-10-13T09:06:55;101073.19;;;14.10;70.49
60465;BME280;46314;52.392;9.758;2022-10-13T09:09:24;101073.81;;;14.98;67.71
60465;BME280;46314;52.392;9.758;2022-10-13T09:11:51;101085.94;;;14.93;67.94
60465;BME280;46314;52.392;9.758;2022-10-13T09:14:22;101089.25;;;15.35;65.73
60465;BME280;46314;52.392;9.758;2022-10-13T09:16:50;101091.88;;;14.46;68.94
60465;BME280;46314;52.392;9.758;2022-10-13T09:19:24;101092.16;;;14.58;69.13
60465;BME280;46314;52.392;9.758;2022-10-13T09:21:51;101097.34;;;15.05;66.90
60465;BME280;46314;52.392;9.758;2022-10-13T09:24:19;101094.63;;;14.91;66.70
60465;BME280;46314;52.392;9.758;2022-10-13T09:26:50;101103.63;;;15.11;66.70
60465;BME280;46314;52.392;9.758;2022-10-13T09:29:20;101095.31;;;15.77;64.51
60465;BME280;46314;52.392;9.758;2022-10-13T09:31:47;101096.13;;;14.89;67.28
60465;BME280;46314;52.392;9.758;2022-10-13T09:34:23;101085.50;;;15.40;64.85
60465;BME280;46314;52.392;9.758;2022-10-13T09:36:57;101082.50;;;14.96;67.91
60465;BME280;46314;52.392;9.758;2022-10-13T09:39:24;101091.34;;;15.21;68.14
60465;BME280;46314;52.392;9.758;2022-10-13T09:41:52;101087.69;;;14.80;67.39
60465;BME280;46314;52.392;9.758;2022-10-13T09:44:33;101073.78;;;14.44;68.48
60465;BME280;46314;52.392;9.758;2022-10-13T09:47:01;101082.25;;;15.06;67.31
60465;BME280;46314;52.392;9.758;2022-10-13T09:49:33;101083.97;;;15.82;63.65
60465;BME280;46314;52.392;9.758;2022-10-13T09:52:03;101089.91;;;15.81;64.23
60465;BME280;46314;52.392;9.758;2022-10-13T09:54:43;101092.06;;;15.84;63.14
60465;BME280;46314;52.392;9.758;2022-10-13T09:57:15;101088.66;;;15.47;64.44
60465;BME280;46314;52.392;9.758;2022-10-13T09:59:45;101085.97;;;15.33;65.32
60465;BME280;46314;52.392;9.758;2022-10-13T10:02:19;101087.78;;;15.78;63.83
60465;BME280;46314;52.392;9.758;2022-10-13T10:04:55;101085.31;;;16.20;62.67
60465;BME280;46314;52.392;9.758;2022-10-13T10:07:27;101076.59;;;16.13;63.00
60465;BME280;46314;52.392;9.758;2022-10-13T10:09:56;101079.81;;;15.62;63.19
60465;BME280;46314;52.392;9.758;2022-10-13T10:12:30;101072.31;;;16.24;62.69
60465;BME280;46314;52.392;9.758;2022-10-13T10:14:57;101072.16;;;15.85;63.95
60465;BME280;46314;52.392;9.758;2022-10-13T10:17:29;101058.81;;;16.17;63.15
60465;BME280;46314;52.392;9.758;2022-10-13T10:20:00;101059.97;;;16.25;62.52
60465;BME280;46314;52.392;9.758;2022-10-13T10:22:34;101050.44;;;16.00;61.71
60465;BME280;46314;52.392;9.758;2022-10-13T10:25:19;101058.81;;;15.82;63.49
60465;BME280;46314;52.392;9.758;2022-10-13T10:27:55;101059.78;;;16.47;61.35
60465;BME280;46314;52.392;9.758;2022-10-13T10:30:29;101055.34;;;16.46;60.91
60465;BME280;46314;52.392;9.758;2022-10-13T10:33:02;101059.28;;;16.54;60.87
60465;BME280;46314;52.392;9.758;2022-10-13T10:35:41;101065.22;;;16.26;60.32
60465;BME280;46314;52.392;9.758;2022-10-13T10:38:19;101055.13;;;16.69;59.69
60465;BME280;46314;52.392;9.758;2022-10-13T10:40:55;101048.94;;;16.28;60.57
60465;BME280;46314;52.392;9.758;2022-10-13T10:43:48;101051.06;;;16.49;60.11
60465;BME280;46314;52.392;9.758;2022-10-13T10:46:21;101037.72;;;16.37;60.63
60465;BME280;46314;52.392;9.758;2022-10-13T10:48:50;101047.03;;;16.76;59.45
60465;BME280;46314;52.392;9.758;2022-10-13T10:51:22;101043.75;;;17.21;58.47
60465;BME280;46314;52.392;9.758;2022-10-13T10:53:56;101041.91;;;16.96;58.99
60465;BME280;46314;52.392;9.758;2022-10-13T10:56:31;101029.34;;;17.62;56.57
60465;BME280;46314;52.392;9.758;2022-10-13T10:59:05;101026.78;;;17.48;56.18
60465;BME280;46314;52.392;9.758;2022-10-13T11:01:44;101018.53;;;17.72;56.25
60465;BME280;46314;52.392;9.758;2022-10-13T11:04:33;101023.72;;;17.62;56.12
60465;BME280;46314;52.392;9.758;2022-10-13T11:07:09;101018.19;;;17.74;56.04
60465;BME280;46314;52.392;9.758;2022-10-13T11:10:03;101012.63;;;17.14;58.06
60465;BME280;46314;52.392;9.758;2022-10-13T11:15:50;101002.00;;;16.90;59.09
60465;BME280;46314;52.392;9.758;2022-10-13T11:18:55;100995.91;;;17.27;58.06
60465;BME280;46314;52.392;9.758;2022-10-13T11:21:21;100993.22;;;17.60;56.64
60465;BME280;46314;52.392;9.758;2022-10-13T11:23:49;100987.28;;;17.32;57.74
60465;BME280;46314;52.392;9.758;2022-10-13T11:26:40;100982.47;;;16.73;60.42
60465;BME280;46314;52.392;9.758;2022-10-13T11:29:18;100984.63;;;17.35;57.87
60465;BME280;46314;52.392;9.758;2022-10-13T11:32:04;100981.47;;;16.69;59.52
60465;BME280;46314;52.392;9.758;2022-10-13T11:34:56;100981.44;;;16.86;59.12
60465;BME280;46314;52.392;9.758;2022-10-13T11:37:27;100974.34;;;16.89;58.69
60465;BME280;46314;52.392;9.758;2022-10-13T11:40:14;100977.31;;;17.22;57.32
60465;BME280;46314;52.392;9.758;2022-10-13T11:42:59;100981.25;;;17.72;55.55
60465;BME280;46314;52.392;9.758;2022-10-13T11:45:44;100967.47;;;17.07;56.79
60465;BME280;46314;52.392;9.758;2022-10-13T11:48:31;100969.41;;;17.45;55.96
60465;BME280;46314;52.392;9.758;2022-10-13T11:51:09;100970.22;;;17.46;55.98
60465;BME280;46314;52.392;9.758;2022-10-13T11:53:49;100967.75;;;17.44;56.59
60465;BME280;46314;52.392;9.758;2022-10-13T11:56:31;100967.41;;;17.67;55.12
60465;BME280;46314;52.392;9.758;2022-10-13T11:58:58;100957.63;;;17.73;56.52
60465;BME280;46314;52.392;9.758;2022-10-13T12:01:24;100956.94;;;17.34;57.88
60465;BME280;46314;52.392;9.758;2022-10-13T12:03:51;100949.06;;;17.27;56.96
60465;BME280;46314;52.392;9.758;2022-10-13T12:06:26;100953.34;;;17.96;55.21
60465;BME280;46314;52.392;9.758;2022-10-13T12:08:53;100954.97;;;18.43;53.82
60465;BME280;46314;52.392;9.758;2022-10-13T12:11:23;100954.53;;;18.08;54.05
60465;BME280;46314;52.392;9.758;2022-10-13T12:13:51;100943.16;;;17.20;57.05
60465;BME280;46314;52.392;9.758;2022-10-13T12:16:18;100942.78;;;17.72;55.57
60465;BME280;46314;52.392;9.758;2022-10-13T12:18:47;100941.75;;;18.31;53.83
60465;BME280;46314;52.392;9.758;2022-10-13T12:21:15;100951.81;;;17.99;54.39
60465;BME280;46314;52.392;9.758;2022-10-13T12:23:42;100939.44;;;17.79;55.06
60465;BME280;46314;52.392;9.758;2022-10-13T12:26:14;100949.72;;;18.42;53.36
60465;BME280;46314;52.392;9.758;2022-10-13T12:28:51;100949.53;;;18.71;52.74
60465;BME280;46314;52.392;9.758;2022-10-13T12:31:21;100938.44;;;18.17;54.78
60465;BME280;46314;52.392;9.758;2022-10-13T12:33:52;100931.06;;;18.25;54.33
60465;BME280;46314;52.392;9.758;2022-10-13T12:36:21;100935.59;;;18.50;53.74
60465;BME280;46314;52.392;9.758;2022-10-13T12:38:50;100937.22;;;18.06;54.52
60465;BME280;46314;52.392;9.758;2022-10-13T12:41:22;100935.59;;;18.50;53.60
60465;BME280;46314;52.392;9.758;2022-10-13T12:43:51;100937.50;;;18.25;53.98
60465;BME280;46314;52.392;9.758;2022-10-13T12:46:38;100930.78;;;18.05;54.32
60465;BME280;46314;52.392;9.758;2022-10-13T12:49:06;100930.38;;;18.86;53.20
60465;BME280;46314;52.392;9.758;2022-10-13T12:51:32;100927.19;;;18.63;53.02
60465;BME280;46314;52.392;9.758;2022-10-13T12:54:06;100928.84;;;18.88;52.98
60465;BME280;46314;52.392;9.758;2022-10-13T12:56:32;100926.56;;;18.69;53.76
60465;BME280;46314;52.392;9.758;2022-10-13T12:59:00;100931.38;;;18.69;53.07
60465;BME280;46314;52.392;9.758;2022-10-13T13:01:29;100928.38;;;18.16;54.01
60465;BME280;46314;52.392;9.758;2022-10-13T13:03:58;100920.69;;;17.50;55.96
60465;BME280;46314;52.392;9.758;2022-10-13T13:06:30;100921.25;;;17.43;56.53
60465;BME280;46314;52.392;9.758;2022-10-13T13:09:27;100916.31;;;16.89;58.48